createdAt,value
2022-11-30T00:00:26.876Z,-8.61
2022-11-30T00:05:28.897Z,-8.64
2022-11-30T00:10:30.908Z,-8.86
2022-11-30T00:15:33.328Z,-8.73
2022-11-30T00:20:35.475Z,-8.77
2022-11-30T00:25:37.570Z,-8.76
2022-11-30T00:30:39.687Z,-8.76
2022-11-30T00:35:41.810Z,-8.69
2022-11-30T00:40:43.895Z,-8.68
2022-11-30T00:45:46.318Z,-8.69
2022-11-30T00:50:50.242Z,-8.70
2022-11-30T00:55:52.319Z,-8.75
2022-11-30T01:00:54.402Z,-8.75
2022-11-30T01:06:02.158Z,-8.75
2022-11-30T01:11:24.637Z,-8.75
2022-11-30T01:16:30.437Z,-8.82
2022-11-30T01:21:32.453Z,-8.85
2022-11-30T01:26:34.454Z,-8.86
2022-11-30T01:31:37.030Z,-8.88
2022-11-30T01:36:39.160Z,-8.91
2022-11-30T01:41:41.297Z,-8.95
2022-11-30T01:46:54.881Z,-8.92
2022-11-30T01:52:07.742Z,-8.97
2022-11-30T01:57:16.778Z,-9.01
2022-11-30T02:02:28.654Z,-9.04
2022-11-30T02:07:30.833Z,-9.12
2022-11-30T02:12:32.936Z,-9.16
2022-11-30T02:18:12.972Z,-9.21
2022-11-30T02:23:54.460Z,-9.23
2022-11-30T02:29:14.181Z,-9.31
2022-11-30T02:34:19.426Z,-9.36
2022-11-30T02:39:22.778Z,-9.49
2022-11-30T02:44:25.774Z,-9.41
2022-11-30T02:49:45.475Z,-9.39
2022-11-30T02:54:47.720Z,-9.42
2022-11-30T02:59:50.311Z,-9.42
2022-11-30T03:04:52.305Z,-9.43
2022-11-30T03:09:54.300Z,-9.46
2022-11-30T03:14:56.311Z,-9.66
2022-11-30T03:19:58.300Z,-9.50
2022-11-30T03:25:00.275Z,-9.54
2022-11-30T03:30:02.341Z,-9.55
2022-11-30T03:35:06.302Z,-9.55
2022-11-30T03:40:09.127Z,-9.60
2022-11-30T03:45:11.397Z,-9.66
2022-11-30T03:50:13.441Z,-9.63
2022-11-30T03:55:15.471Z,-9.65
2022-11-30T04:00:18.185Z,-9.67
2022-11-30T04:05:22.382Z,-9.72
2022-11-30T04:10:24.386Z,-9.73
2022-11-30T04:15:26.386Z,-9.77
2022-11-30T04:20:28.362Z,-9.75
2022-11-30T04:25:30.330Z,-9.76
2022-11-30T04:30:33.701Z,-9.82
2022-11-30T04:35:41.441Z,-9.76
2022-11-30T04:40:44.155Z,-9.84
2022-11-30T04:45:47.203Z,-10.00
2022-11-30T04:50:49.243Z,-9.85
2022-11-30T04:55:51.214Z,-9.84
2022-11-30T05:00:56.365Z,-9.83
2022-11-30T05:05:59.734Z,-9.82
2022-11-30T05:11:01.857Z,-9.82
2022-11-30T05:16:04.899Z,-9.82
2022-11-30T05:21:07.013Z,-9.83
2022-11-30T05:26:09.125Z,-10.02
2022-11-30T05:31:11.237Z,-9.88
2022-11-30T05:36:13.366Z,-9.87
2022-11-30T05:41:15.573Z,-9.88
2022-11-30T05:46:17.583Z,-9.88
2022-11-30T05:51:20.809Z,-9.76
2022-11-30T05:56:22.891Z,-9.83
2022-11-30T06:01:27.813Z,-9.72
2022-11-30T06:06:29.820Z,-9.09
2022-11-30T06:11:31.899Z,-7.95
2022-11-30T06:16:33.951Z,-6.71
2022-11-30T06:21:35.934Z,-5.49
2022-11-30T06:26:37.978Z,-4.53
2022-11-30T06:31:40.036Z,-3.96
2022-11-30T06:36:42.126Z,-3.68
2022-11-30T06:41:44.117Z,-3.91
2022-11-30T06:46:46.149Z,-4.37
2022-11-30T06:51:48.207Z,-5.03
2022-11-30T06:56:50.348Z,-5.45
2022-11-30T07:01:52.384Z,-5.71
2022-11-30T07:06:54.450Z,-5.87
2022-11-30T07:11:56.850Z,-6.05
2022-11-30T07:16:58.873Z,-6.47
2022-11-30T07:22:00.921Z,-6.12
2022-11-30T07:27:04.210Z,-6.01
2022-11-30T07:32:06.258Z,-5.64
2022-11-30T07:37:08.337Z,-5.51
2022-11-30T07:42:11.006Z,-5.25
2022-11-30T07:47:13.075Z,-5.03
2022-11-30T07:52:15.168Z,-4.75
2022-11-30T07:57:17.193Z,-4.33
2022-11-30T08:02:25.352Z,-2.86
2022-11-30T08:07:27.598Z,-0.55
2022-11-30T08:12:29.695Z,1.50
2022-11-30T08:17:31.787Z,2.44
2022-11-30T08:22:34.263Z,3.96
2022-11-30T08:27:36.324Z,4.92
2022-11-30T08:32:38.601Z,5.78
2022-11-30T08:37:40.600Z,6.70
2022-11-30T08:42:42.445Z,8.01
2022-11-30T08:47:44.450Z,8.29
2022-11-30T08:52:46.300Z,9.44
2022-11-30T08:57:48.308Z,9.65
2022-11-30T09:02:50.351Z,10.55
2022-11-30T09:07:52.513Z,9.45
2022-11-30T09:12:54.552Z,9.34
2022-11-30T09:17:56.523Z,10.49
2022-11-30T09:22:59.807Z,10.23
2022-11-30T09:28:01.881Z,11.20
2022-11-30T09:33:04.035Z,12.07
2022-11-30T09:38:06.312Z,11.77
2022-11-30T09:43:28.350Z,11.56
2022-11-30T09:48:51.811Z,10.88
2022-11-30T09:54:07.625Z,9.82
2022-11-30T09:59:20.661Z,9.48
2022-11-30T10:04:31.455Z,10.26
2022-11-30T10:10:30.939Z,11.13
2022-11-30T10:15:27.422Z,11.52
2022-11-30T10:20:58.733Z,12.47
2022-11-30T10:26:11.818Z,13.16
2022-11-30T10:31:15.550Z,12.99
2022-11-30T10:36:20.486Z,12.87
2022-11-30T10:41:29.568Z,12.74
2022-11-30T10:46:37.174Z,12.24
2022-11-30T10:51:42.898Z,10.76
2022-11-30T10:56:45.210Z,10.09
2022-11-30T11:01:47.444Z,9.90
2022-11-30T11:06:56.114Z,9.48
2022-11-30T11:12:02.517Z,9.65
2022-11-30T11:17:19.356Z,8.31
2022-11-30T11:22:31.019Z,6.79
2022-11-30T11:27:33.900Z,6.13
2022-11-30T11:32:36.124Z,6.77
2022-11-30T11:37:41.622Z,6.63
2022-11-30T11:42:48.634Z,6.63
2022-11-30T11:48:29.217Z,6.69
2022-11-30T11:53:47.350Z,6.01
2022-11-30T11:59:07.094Z,5.50
2022-11-30T12:04:41.501Z,4.83
2022-11-30T12:10:35.588Z,4.06
2022-11-30T12:15:53.163Z,3.06
2022-11-30T12:21:11.324Z,1.77
2022-11-30T12:26:22.379Z,0.68
2022-11-30T12:31:39.298Z,-0.28
2022-11-30T12:36:59.199Z,-0.99
2022-11-30T12:42:13.676Z,-1.62
2022-11-30T12:47:27.565Z,-2.11
2022-11-30T12:52:36.704Z,-2.61
2022-11-30T12:57:48.887Z,-3.16
2022-11-30T13:03:03.086Z,-3.50
2022-11-30T13:08:07.924Z,-3.85
2022-11-30T13:13:17.688Z,-4.15
2022-11-30T13:18:22.298Z,-4.39
2022-11-30T13:23:48.509Z,-4.56
2022-11-30T13:29:08.502Z,-4.60
2022-11-30T13:34:44.066Z,-4.70
2022-11-30T13:39:58.659Z,-4.78
2022-11-30T13:45:18.557Z,-5.00
2022-11-30T13:50:40.083Z,-4.93
2022-11-30T13:55:41.975Z,-5.09
2022-11-30T14:00:45.825Z,-5.12
2022-11-30T14:05:51.298Z,-5.12
2022-11-30T14:10:55.127Z,-5.19
2022-11-30T14:16:01.988Z,-5.30
2022-11-30T14:21:15.721Z,-5.41
2022-11-30T14:26:38.331Z,-5.48
2022-11-30T14:32:08.207Z,-5.50
2022-11-30T14:37:23.628Z,-5.61
2022-11-30T14:42:28.317Z,-5.66
2022-11-30T14:47:33.934Z,-5.66
2022-11-30T14:52:53.680Z,-5.63
2022-11-30T14:58:30.946Z,-5.68
2022-11-30T15:03:40.280Z,-5.77
2022-11-30T15:08:48.353Z,-5.78
2022-11-30T15:13:56.276Z,-5.82
2022-11-30T15:18:59.770Z,-6.07
2022-11-30T15:24:02.572Z,-5.96
2022-11-30T15:29:10.264Z,-6.01
2022-11-30T15:34:30.732Z,-6.01
2022-11-30T15:39:33.268Z,-6.07
2022-11-30T15:44:38.216Z,-6.14
2022-11-30T15:49:50.929Z,-6.20
2022-11-30T15:54:59.000Z,-6.13
2022-11-30T16:00:16.530Z,-6.09
2022-11-30T16:05:19.877Z,-6.18
2022-11-30T16:10:25.935Z,-6.31
2022-11-30T16:15:30.654Z,-6.33
2022-11-30T16:20:32.927Z,-6.31
2022-11-30T16:25:35.543Z,-6.35
2022-11-30T16:30:38.595Z,-6.40
2022-11-30T16:35:53.483Z,-6.50
2022-11-30T16:40:56.417Z,-6.44
2022-11-30T16:45:58.658Z,-6.53
2022-11-30T16:51:00.850Z,-6.64
2022-11-30T16:56:02.995Z,-6.53
2022-11-30T17:01:07.732Z,-6.55
2022-11-30T17:06:16.678Z,-6.56
2022-11-30T17:11:31.719Z,-6.57
2022-11-30T17:16:34.149Z,-6.61
2022-11-30T17:21:38.958Z,-6.61
2022-11-30T17:26:41.154Z,-6.68
2022-11-30T17:31:44.558Z,-6.76
2022-11-30T17:36:51.247Z,-6.82
2022-11-30T17:41:53.440Z,-6.85
2022-11-30T17:46:55.548Z,-6.90
2022-11-30T17:51:57.674Z,-6.91
2022-11-30T17:56:59.871Z,-6.99
2022-11-30T18:02:02.108Z,-6.98
2022-11-30T18:07:05.178Z,-7.09
2022-11-30T18:12:07.429Z,-7.12
2022-11-30T18:17:09.776Z,-7.13
2022-11-30T18:22:12.457Z,-7.11
2022-11-30T18:27:14.618Z,-7.22
2022-11-30T18:32:16.661Z,-7.24
2022-11-30T18:37:18.858Z,-7.23
2022-11-30T18:42:22.676Z,-7.33
2022-11-30T18:47:24.865Z,-7.35
2022-11-30T18:52:27.656Z,-7.45
2022-11-30T18:57:30.462Z,-7.61
2022-11-30T19:02:32.760Z,-7.47
2022-11-30T19:07:42.404Z,-7.51
2022-11-30T19:12:45.536Z,-7.52
2022-11-30T19:17:48.078Z,-7.58
2022-11-30T19:22:50.288Z,-7.64
2022-11-30T19:27:52.527Z,-7.67
2022-11-30T19:32:54.951Z,-7.77
2022-11-30T19:37:57.314Z,-7.65
2022-11-30T19:42:59.630Z,-7.65
2022-11-30T19:48:01.851Z,-7.73
2022-11-30T19:53:05.774Z,-7.79
2022-11-30T19:58:08.065Z,-7.85
2022-11-30T20:03:11.253Z,-7.88
2022-11-30T20:08:13.321Z,-7.86
2022-11-30T20:13:15.551Z,-7.82
2022-11-30T20:18:18.011Z,-7.93
2022-11-30T20:23:20.041Z,-7.94
2022-11-30T20:28:22.145Z,-7.98
2022-11-30T20:33:24.168Z,-7.99
2022-11-30T20:38:27.245Z,-8.03
2022-11-30T20:43:30.376Z,-8.03
2022-11-30T20:48:33.342Z,-8.05
2022-11-30T20:53:35.588Z,-8.07
2022-11-30T20:58:37.758Z,-8.22
2022-11-30T21:03:40.240Z,-8.15
2022-11-30T21:08:43.080Z,-8.23
2022-11-30T21:13:47.211Z,-8.23
2022-11-30T21:18:49.858Z,-8.25
2022-11-30T21:23:52.370Z,-8.30
2022-11-30T21:28:58.638Z,-8.49
2022-11-30T21:34:01.272Z,-8.40
2022-11-30T21:39:07.104Z,-8.48
2022-11-30T21:44:12.961Z,-8.48
2022-11-30T21:49:16.093Z,-8.57
2022-11-30T21:54:18.202Z,-8.64
2022-11-30T21:59:20.267Z,-8.71
2022-11-30T22:04:22.378Z,-8.74
2022-11-30T22:09:24.601Z,-8.82
2022-11-30T22:14:27.071Z,-8.87
2022-11-30T22:19:29.190Z,-8.90
2022-11-30T22:24:31.338Z,-8.95
2022-11-30T22:29:33.483Z,-8.96
2022-11-30T22:34:35.575Z,-9.14
2022-11-30T22:39:37.718Z,-9.05
2022-11-30T22:44:39.816Z,-9.07
2022-11-30T22:49:41.985Z,-9.12
2022-11-30T22:54:44.189Z,-9.15
2022-11-30T22:59:46.653Z,-9.16
2022-11-30T23:04:48.908Z,-9.18
2022-11-30T23:09:51.145Z,-9.19
2022-11-30T23:14:53.268Z,-9.19
2022-11-30T23:19:55.269Z,-9.14
2022-11-30T23:24:57.265Z,-9.17
2022-11-30T23:29:59.405Z,-9.36
2022-11-30T23:35:01.520Z,-9.38
2022-11-30T23:40:06.002Z,-9.25
2022-11-30T23:45:08.900Z,-9.31
2022-11-30T23:50:11.430Z,-9.33
2022-11-30T23:55:13.579Z,-9.40
